FACT

Cape Town International Airport

Cape Town, South Africa
TAF FACT 241600Z 2418/2524 20008KT 9999 SCT013 FM250000 34010KT 9999 BKN025 FM250500 34010KT 9999 BKN020 OVC035 BECMG 2511/2513 34020KT PROB30 TEMPO 2521/2524 4000 -RA OVC015 TX18/2512Z TN12/2505Z
Issued Valid From Valid To
Sep-24 @ 16:00 UTC
(7 hours ago)
Sep-24 @ 18:00 UTC
(5 hours ago)
Sep-26 @ 00:00 UTC
(-1 days ago)
Sep-24 @ 18:00 to Sep-25 @ 00:00
TAF FACT 241600Z 2418/2524 20008KT 9999 SCT013
Wind Visibility Clouds
200° at 8 knots 10,000+ meters
  • Scattered at 1,300' AGL
From Sep-25 @ 00:00 to Sep-25 @ 05:00
FM250000 34010KT 9999 BKN025
Wind Visibility Clouds
340° at 10 knots 10,000+ meters
  • Broken at 2,500' AGL
From Sep-25 @ 05:00 to Sep-25 @ 11:00
FM250500 34010KT 9999 BKN020 OVC035
Wind Visibility Clouds
340° at 10 knots 10,000+ meters
  • Broken at 2,000' AGL
  • Overcast at 3,500' AGL
Becoming Sep-25 @ 11:00 to Sep-26 @ 00:00
BECMG 2511/2513 34020KT
Wind Visibility Clouds
340° at 20 knots 10,000+ meters
  • Broken at 2,000' AGL
  • Overcast at 3,500' AGL
Temporary  (Probability 30%) Sep-25 @ 21:00 to Sep-26 @ 00:00
PROB30 TEMPO 2521/2524 4000 -RA OVC015 TX18/2512Z TN12/2505Z
Visibility Clouds Conditions
4,007 meters
  • Overcast at 1,500' AGL
  • Light Rain
TAF FACT 241600Z 2418/2524 20008KT 9999 SCT013 FM250000 34010KT 9999 BKN025 FM250500 34010KT 9999 BKN020 OVC035 BECMG 2511/2513 34020KT PROB30 TEMPO 2521/2524 4000 -RA OVC015 TX18/2512Z TN12/2505Z
Issued Sep-24 @ 16:00 UTC
(7 hours ago)
Valid From Sep-24 @ 18:00 UTC
(5 hours ago)
Valid To Sep-26 @ 00:00 UTC
(-1 days ago)
Sep-24 @ 18:00 - Sep-25 @ 00:00
Wind Visibility
200° at 8 knots 10,000+ meters
Clouds
  • Scattered at 1,300' AGL
From Sep-25 @ 00:00 - Sep-25 @ 05:00
Wind Visibility
340° at 10 knots 10,000+ meters
Clouds
  • Broken at 2,500' AGL
From Sep-25 @ 05:00 - Sep-25 @ 11:00
Wind Visibility
340° at 10 knots 10,000+ meters
Clouds
  • Broken at 2,000' AGL
  • Overcast at 3,500' AGL
Becoming Sep-25 @ 11:00 - Sep-26 @ 00:00
Wind Visibility
340° at 20 knots 10,000+ meters
Clouds
  • Broken at 2,000' AGL
  • Overcast at 3,500' AGL
Probability 30% Temporary Sep-25 @ 21:00 - Sep-26 @ 00:00
Clouds
  • Overcast at 1,500' AGL
Conditions
  • Light Rain